Time;durP1;ratioP1;P1;durP2;ratioP2;P2;SDS_P1;SDS_P2;PMS_P1;PMS_P2;Temp;Humidity;BMP_temperature;BMP_pressure;BME280_temperature;BME280_humidity;BME280_pressure;Samples;Min_cycle;Max_cycle;Signal;HPM_P1;HPM_P2
2020/12/07 11:22:53;;;;;;;11.10;10.00;;;;;;;6.11;90.17;97446.19;5188924;27;20530;-81
2020/12/07 11:25:21;;;;;;;12.83;8.97;;;;;;;6.62;88.84;97425.16;5188521;27;39708;-81
2020/12/07 11:27:48;;;;;;;11.30;9.60;;;;;;;7.28;85.95;97434.53;5229177;22;41993;-80
2020/12/07 11:30:15;;;;;;;9.07;8.17;;;;;;;7.83;82.16;97439.22;5105122;28;43508;-80
2020/12/07 11:32:42;;;;;;;9.73;8.40;;;;;;;8.02;79.57;97427.31;5106068;27;42157;-79
2020/12/07 11:35:10;;;;;;;9.20;8.30;;;;;;;8.26;78.36;97436.88;5088032;28;40478;-80
2020/12/07 11:37:39;;;;;;;9.67;8.47;;;;;;;8.23;75.92;97425.69;5110189;28;42305;-78
2020/12/07 11:40:12;;;;;;;9.00;7.63;;;;;;;8.28;74.65;97424.38;5219104;22;42991;-79
2020/12/07 11:42:45;;;;;;;11.80;9.10;;;;;;;8.21;74.29;97420.53;5145144;27;42541;-80
2020/12/07 11:45:13;;;;;;;9.47;8.50;;;;;;;8.23;74.58;97442.38;5128352;27;41473;-80
2020/12/07 11:47:40;;;;;;;9.77;8.77;;;;;;;8.13;74.34;97441.38;5136212;27;42290;-80
2020/12/07 11:50:07;;;;;;;9.03;8.13;;;;;;;7.96;73.75;97433.03;5160568;27;42849;-80
2020/12/07 11:52:34;;;;;;;10.20;7.97;;;;;;;7.99;74.21;97438.09;5196355;22;44249;-79
2020/12/07 11:55:01;;;;;;;11.20;8.77;;;;;;;7.99;74.52;97431.03;5087161;28;40727;-79
2020/12/07 11:57:29;;;;;;;10.37;9.07;;;;;;;7.92;73.69;97437.69;5109468;27;41704;-80
2020/12/07 11:59:56;;;;;;;10.53;9.40;;;;;;;7.90;74.10;97439.63;5107894;27;43686;-79
2020/12/07 12:05:14;;;;;;;9.63;8.63;;;;;;;7.85;73.54;97439.13;5104584;28;20238;-80
2020/12/07 12:07:41;;;;;;;10.70;8.83;;;;;;;7.87;73.88;97439.84;5104373;27;41726;-80
2020/12/07 12:10:08;;;;;;;10.50;8.57;;;;;;;7.80;74.12;97422.78;5104593;28;43818;-80
2020/12/07 12:12:36;;;;;;;11.50;8.57;;;;;;;7.75;73.38;97427.56;5088056;28;42235;-80
2020/12/07 12:15:04;;;;;;;11.70;9.10;;;;;;;7.74;73.53;97426.75;5180674;22;41431;-79
2020/12/07 12:17:32;;;;;;;10.50;9.00;;;;;;;7.81;73.26;97448.19;5124228;27;44036;-79
2020/12/07 12:19:59;;;;;;;9.40;8.40;;;;;;;7.80;73.49;97438.59;5123702;27;44150;-80
2020/12/07 12:22:26;;;;;;;9.23;8.33;;;;;;;7.80;73.33;97449.16;5106184;27;43343;-80
2020/12/07 12:24:53;;;;;;;9.27;8.27;;;;;;;7.83;73.35;97443.66;5123540;27;39890;-79
2020/12/07 12:27:22;;;;;;;9.37;7.50;;;;;;;7.82;73.15;97445.44;5193872;22;41452;-79
2020/12/07 12:29:50;;;;;;;9.20;8.13;;;;;;;7.84;73.69;97454.09;5103158;28;42580;-80
2020/12/07 12:32:17;;;;;;;9.53;7.17;;;;;;;7.80;72.97;97459.69;5082503;28;43359;-80
2020/12/07 12:34:44;;;;;;;8.77;7.87;;;;;;;7.73;72.16;97469.00;5089498;28;40450;-80
2020/12/07 12:37:11;;;;;;;8.73;7.73;;;;;;;7.72;72.91;97468.16;5184625;22;42473;-79
2020/12/07 12:39:38;;;;;;;9.03;7.70;;;;;;;7.65;72.49;97466.09;5113975;27;44317;-80
2020/12/07 12:42:06;;;;;;;9.30;7.83;;;;;;;7.69;72.75;97467.53;5130331;27;42073;-79
2020/12/07 12:44:33;;;;;;;8.87;7.87;;;;;;;7.62;72.37;97474.22;5130658;27;39825;-79
2020/12/07 12:47:01;;;;;;;9.70;7.80;;;;;;;7.63;72.29;97475.91;5131657;27;41511;-79
2020/12/07 12:49:28;;;;;;;9.30;7.53;;;;;;;7.60;72.51;97481.38;5210644;22;43666;-80
2020/12/07 12:51:56;;;;;;;8.67;7.87;;;;;;;7.55;72.55;97477.28;5105117;28;42260;-80
2020/12/07 12:54:23;;;;;;;9.30;7.27;;;;;;;7.43;72.64;97467.63;5089123;28;41687;-79
2020/12/07 12:56:50;;;;;;;8.60;7.70;;;;;;;7.52;72.63;97477.53;5106674;28;41369;-79
2020/12/07 12:59:18;;;;;;;9.93;8.13;;;;;;;7.38;72.76;97467.13;5089563;28;44377;-79
2020/12/07 13:01:45;;;;;;;9.60;8.43;;;;;;;7.41;72.37;97490.63;5194400;22;42030;-80
2020/12/07 13:04:13;;;;;;;8.73;7.63;;;;;;;7.39;72.78;97494.31;5092657;28;40532;-79
2020/12/07 13:06:40;;;;;;;8.10;7.30;;;;;;;7.40;72.86;97494.22;5088994;28;43895;-80
2020/12/07 13:09:07;;;;;;;9.63;7.93;;;;;;;7.38;72.79;97492.63;5100957;28;42788;-80
2020/12/07 13:11:35;;;;;;;8.83;7.63;;;;;;;7.34;73.11;97502.53;5092077;28;42926;-80
2020/12/07 13:14:03;;;;;;;8.43;7.40;;;;;;;7.30;73.41;97492.31;5162699;22;39849;-80
2020/12/07 13:16:37;;;;;;;8.10;7.30;;;;;;;7.33;73.25;97500.84;5068116;28;41486;-81
2020/12/07 13:19:06;;;;;;;9.13;8.07;;;;;;;7.21;73.35;97488.56;5052614;28;44599;-80
2020/12/07 13:21:35;;;;;;;8.23;7.33;;;;;;;7.28;73.48;97502.97;5051885;28;42795;-79
2020/12/07 13:24:06;;;;;;;11.63;7.93;;;;;;;7.24;73.16;97504.13;5145943;22;40442;-80
2020/12/07 13:26:43;;;;;;;12.40;9.27;;;;;;;7.11;73.52;97482.25;5109395;28;41705;-79
2020/12/07 13:29:10;;;;;;;10.33;8.10;;;;;;;7.21;73.60;97505.19;5091955;28;43581;-79
2020/12/07 13:31:39;;;;;;;8.43;7.47;;;;;;;7.11;73.10;97498.06;5108912;28;43505;-79
2020/12/07 13:34:06;;;;;;;9.00;8.03;;;;;;;7.16;73.23;97515.22;5074506;28;41442;-81
2020/12/07 13:36:34;;;;;;;8.63;7.73;;;;;;;7.14;73.11;97518.91;5176289;22;42400;-80
2020/12/07 13:39:01;;;;;;;8.90;8.00;;;;;;;7.11;72.86;97513.84;5105890;28;42729;-80
2020/12/07 13:41:28;;;;;;;8.63;7.73;;;;;;;7.08;72.77;97514.06;5105342;28;41997;-80
2020/12/07 13:43:55;;;;;;;9.57;8.23;;;;;;;6.96;72.80;97493.84;5087843;28;41689;-80
2020/12/07 13:46:22;;;;;;;9.40;8.43;;;;;;;7.05;73.23;97514.25;5071342;28;43271;-80
2020/12/07 13:48:49;;;;;;;9.83;8.40;;;;;;;7.08;73.36;97517.53;5154761;22;43338;-80
2020/12/07 13:51:19;;;;;;;10.27;8.73;;;;;;;7.00;73.55;97505.84;5051330;28;43036;-80
2020/12/07 13:53:47;;;;;;;9.80;8.73;;;;;;;7.10;73.54;97520.06;5048043;28;40948;-80
2020/12/07 13:56:15;;;;;;;12.03;9.50;;;;;;;7.08;72.92;97521.94;5064658;28;42479;-80
2020/12/07 13:58:42;;;;;;;8.90;8.00;;;;;;;7.12;73.44;97526.06;5145192;22;43678;-81
2020/12/07 14:01:09;;;;;;;9.77;8.00;;;;;;;7.10;73.09;97527.94;5084850;28;40089;-80
2020/12/07 14:03:41;;;;;;;9.67;8.53;;;;;;;7.06;73.06;97529.09;5076846;28;41016;-80
2020/12/07 14:06:09;;;;;;;9.50;7.83;;;;;;;7.09;73.22;97531.53;5079134;28;42325;-80
2020/12/07 14:08:36;;;;;;;9.10;8.20;;;;;;;7.11;72.90;97529.63;5071556;28;44006;-82
2020/12/07 14:11:04;;;;;;;9.10;7.80;;;;;;;7.11;73.17;97529.63;5181156;22;41700;-79
2020/12/07 14:13:32;;;;;;;8.50;7.60;;;;;;;7.12;73.38;97533.97;5092320;28;39999;-79
2020/12/07 14:15:59;;;;;;;9.50;8.07;;;;;;;7.03;73.33;97521.44;5106612;28;41613;-79
2020/12/07 14:18:28;;;;;;;11.97;8.60;;;;;;;7.09;73.48;97542.06;5071594;28;43643;-79
